sensor_id;sensor_type;location;lat;lon;timestamp;P1;durP1;ratioP1;P2;durP2;ratioP2
19059;SDS011;9663;48.996;8.334;2022-08-04T00:02:26;2.95;;;1.23;;
19059;SDS011;9663;48.996;8.334;2022-08-04T00:05:08;4.57;;;1.65;;
19059;SDS011;9663;48.996;8.334;2022-08-04T00:07:53;3.15;;;1.30;;
19059;SDS011;9663;48.996;8.334;2022-08-04T00:10:35;3.38;;;1.50;;
19059;SDS011;9663;48.996;8.334;2022-08-04T00:13:04;3.47;;;1.40;;
19059;SDS011;9663;48.996;8.334;2022-08-04T00:15:33;3.50;;;1.40;;
19059;SDS011;9663;48.996;8.334;2022-08-04T00:18:04;3.65;;;1.50;;
19059;SDS011;9663;48.996;8.334;2022-08-04T00:20:34;3.60;;;1.60;;
19059;SDS011;9663;48.996;8.334;2022-08-04T00:23:05;3.70;;;1.50;;
19059;SDS011;9663;48.996;8.334;2022-08-04T00:25:32;3.08;;;1.55;;
19059;SDS011;9663;48.996;8.334;2022-08-04T00:28:01;4.78;;;1.60;;
19059;SDS011;9663;48.996;8.334;2022-08-04T00:30:27;2.90;;;1.20;;
19059;SDS011;9663;48.996;8.334;2022-08-04T00:32:53;3.72;;;1.30;;
19059;SDS011;9663;48.996;8.334;2022-08-04T00:35:21;3.72;;;1.50;;
19059;SDS011;9663;48.996;8.334;2022-08-04T00:37:48;3.22;;;1.38;;
19059;SDS011;9663;48.996;8.334;2022-08-04T00:43:07;2.78;;;1.25;;
19059;SDS011;9663;48.996;8.334;2022-08-04T01:01:01;2.35;;;0.93;;
19059;SDS011;9663;48.996;8.334;2022-08-04T01:03:36;4.43;;;1.42;;
19059;SDS011;9663;48.996;8.334;2022-08-04T01:17:40;3.50;;;1.10;;
19059;SDS011;9663;48.996;8.334;2022-08-04T01:20:23;3.28;;;1.00;;
19059;SDS011;9663;48.996;8.334;2022-08-04T01:31:41;2.75;;;1.20;;
19059;SDS011;9663;48.996;8.334;2022-08-04T01:34:37;2.55;;;1.05;;
19059;SDS011;9663;48.996;8.334;2022-08-04T01:40:08;3.15;;;1.20;;
19059;SDS011;9663;48.996;8.334;2022-08-04T01:42:40;2.83;;;1.20;;
19059;SDS011;9663;48.996;8.334;2022-08-04T01:45:10;2.13;;;0.95;;
19059;SDS011;9663;48.996;8.334;2022-08-04T01:47:41;2.85;;;1.20;;
19059;SDS011;9663;48.996;8.334;2022-08-04T01:50:18;3.10;;;1.30;;
19059;SDS011;9663;48.996;8.334;2022-08-04T01:52:46;4.03;;;1.20;;
19059;SDS011;9663;48.996;8.334;2022-08-04T01:55:17;3.40;;;1.30;;
19059;SDS011;9663;48.996;8.334;2022-08-04T01:57:50;3.00;;;1.20;;
19059;SDS011;9663;48.996;8.334;2022-08-04T02:00:19;2.78;;;1.10;;
19059;SDS011;9663;48.996;8.334;2022-08-04T02:02:50;3.38;;;1.33;;
19059;SDS011;9663;48.996;8.334;2022-08-04T02:05:18;2.47;;;1.10;;
19059;SDS011;9663;48.996;8.334;2022-08-04T02:11:03;3.20;;;1.10;;
19059;SDS011;9663;48.996;8.334;2022-08-04T02:13:57;2.63;;;1.10;;
19059;SDS011;9663;48.996;8.334;2022-08-04T02:16:42;3.63;;;1.00;;
19059;SDS011;9663;48.996;8.334;2022-08-04T02:21:46;3.10;;;1.15;;
19059;SDS011;9663;48.996;8.334;2022-08-04T02:24:19;2.67;;;1.10;;
19059;SDS011;9663;48.996;8.334;2022-08-04T02:26:51;2.80;;;1.20;;
19059;SDS011;9663;48.996;8.334;2022-08-04T02:32:14;2.88;;;1.20;;
19059;SDS011;9663;48.996;8.334;2022-08-04T02:34:53;2.92;;;1.23;;
19059;SDS011;9663;48.996;8.334;2022-08-04T02:37:35;2.85;;;1.17;;
19059;SDS011;9663;48.996;8.334;2022-08-04T02:40:03;2.80;;;1.30;;
19059;SDS011;9663;48.996;8.334;2022-08-04T02:42:31;2.95;;;1.30;;
19059;SDS011;9663;48.996;8.334;2022-08-04T02:44:58;3.08;;;1.25;;
19059;SDS011;9663;48.996;8.334;2022-08-04T02:47:25;2.85;;;1.10;;
19059;SDS011;9663;48.996;8.334;2022-08-04T02:49:53;2.45;;;1.00;;
19059;SDS011;9663;48.996;8.334;2022-08-04T02:52:23;3.03;;;1.30;;
19059;SDS011;9663;48.996;8.334;2022-08-04T02:54:50;3.72;;;1.30;;
19059;SDS011;9663;48.996;8.334;2022-08-04T02:57:20;3.13;;;1.38;;
19059;SDS011;9663;48.996;8.334;2022-08-04T03:00:07;4.20;;;1.48;;
19059;SDS011;9663;48.996;8.334;2022-08-04T03:35:35;3.17;;;1.20;;
19059;SDS011;9663;48.996;8.334;2022-08-04T03:44:15;4.80;;;1.52;;
19059;SDS011;9663;48.996;8.334;2022-08-04T03:50:18;3.88;;;1.25;;
19059;SDS011;9663;48.996;8.334;2022-08-04T03:53:46;3.42;;;1.23;;
19059;SDS011;9663;48.996;8.334;2022-08-04T03:56:38;3.45;;;1.30;;
19059;SDS011;9663;48.996;8.334;2022-08-04T03:59:57;3.67;;;1.55;;
19059;SDS011;9663;48.996;8.334;2022-08-04T04:23:37;3.45;;;1.35;;
19059;SDS011;9663;48.996;8.334;2022-08-04T04:45:24;4.07;;;1.50;;
19059;SDS011;9663;48.996;8.334;2022-08-04T04:53:59;4.43;;;1.70;;
19059;SDS011;9663;48.996;8.334;2022-08-04T04:59:46;3.92;;;1.60;;
19059;SDS011;9663;48.996;8.334;2022-08-04T05:13:48;4.63;;;1.73;;
19059;SDS011;9663;48.996;8.334;2022-08-04T05:16:28;4.40;;;1.65;;
19059;SDS011;9663;48.996;8.334;2022-08-04T05:21:48;5.10;;;1.92;;
19059;SDS011;9663;48.996;8.334;2022-08-04T05:24:21;5.57;;;1.67;;
19059;SDS011;9663;48.996;8.334;2022-08-04T05:26:53;3.90;;;1.60;;
19059;SDS011;9663;48.996;8.334;2022-08-04T05:29:28;3.78;;;1.50;;
19059;SDS011;9663;48.996;8.334;2022-08-04T05:32:01;3.72;;;1.70;;
19059;SDS011;9663;48.996;8.334;2022-08-04T05:34:38;4.30;;;1.90;;
19059;SDS011;9663;48.996;8.334;2022-08-04T05:37:21;4.07;;;1.65;;
19059;SDS011;9663;48.996;8.334;2022-08-04T05:39:51;3.58;;;1.63;;
19059;SDS011;9663;48.996;8.334;2022-08-04T05:42:22;3.35;;;1.40;;
19059;SDS011;9663;48.996;8.334;2022-08-04T05:44:50;5.43;;;1.45;;
19059;SDS011;9663;48.996;8.334;2022-08-04T05:47:16;3.50;;;1.50;;
19059;SDS011;9663;48.996;8.334;2022-08-04T05:49:45;4.00;;;1.80;;
19059;SDS011;9663;48.996;8.334;2022-08-04T05:52:11;3.95;;;1.38;;
19059;SDS011;9663;48.996;8.334;2022-08-04T05:54:39;3.20;;;1.55;;
19059;SDS011;9663;48.996;8.334;2022-08-04T05:57:06;3.80;;;1.48;;
19059;SDS011;9663;48.996;8.334;2022-08-04T05:59:35;3.33;;;1.45;;
19059;SDS011;9663;48.996;8.334;2022-08-04T06:02:06;3.75;;;1.60;;
19059;SDS011;9663;48.996;8.334;2022-08-04T06:04:34;2.88;;;1.33;;
19059;SDS011;9663;48.996;8.334;2022-08-04T06:07:04;3.60;;;1.60;;
19059;SDS011;9663;48.996;8.334;2022-08-04T06:09:31;2.95;;;1.30;;
19059;SDS011;9663;48.996;8.334;2022-08-04T06:11:59;4.07;;;1.40;;
19059;SDS011;9663;48.996;8.334;2022-08-04T06:14:29;3.85;;;1.50;;
19059;SDS011;9663;48.996;8.334;2022-08-04T06:17:05;3.05;;;1.20;;
19059;SDS011;9663;48.996;8.334;2022-08-04T06:19:34;3.15;;;1.40;;
19059;SDS011;9663;48.996;8.334;2022-08-04T06:22:03;3.88;;;1.58;;
19059;SDS011;9663;48.996;8.334;2022-08-04T06:24:33;3.40;;;1.60;;
19059;SDS011;9663;48.996;8.334;2022-08-04T06:27:02;3.50;;;1.60;;
19059;SDS011;9663;48.996;8.334;2022-08-04T06:29:30;3.45;;;1.35;;
19059;SDS011;9663;48.996;8.334;2022-08-04T06:32:01;5.78;;;1.67;;
19059;SDS011;9663;48.996;8.334;2022-08-04T06:34:58;3.80;;;1.60;;
19059;SDS011;9663;48.996;8.334;2022-08-04T06:37:27;4.10;;;1.50;;
19059;SDS011;9663;48.996;8.334;2022-08-04T06:39:54;3.65;;;1.55;;
19059;SDS011;9663;48.996;8.334;2022-08-04T06:42:22;4.13;;;1.55;;
19059;SDS011;9663;48.996;8.334;2022-08-04T06:44:51;4.97;;;1.45;;
19059;SDS011;9663;48.996;8.334;2022-08-04T06:47:21;4.18;;;1.85;;
19059;SDS011;9663;48.996;8.334;2022-08-04T06:49:51;3.20;;;1.40;;
19059;SDS011;9663;48.996;8.334;2022-08-04T06:52:20;3.80;;;1.75;;
19059;SDS011;9663;48.996;8.334;2022-08-04T06:54:47;3.22;;;1.58;;
19059;SDS011;9663;48.996;8.334;2022-08-04T06:57:17;3.55;;;1.60;;
19059;SDS011;9663;48.996;8.334;2022-08-04T06:59:52;4.47;;;1.80;;
19059;SDS011;9663;48.996;8.334;2022-08-04T07:02:26;4.50;;;1.90;;
19059;SDS011;9663;48.996;8.334;2022-08-04T07:04:57;2.88;;;1.50;;
19059;SDS011;9663;48.996;8.334;2022-08-04T07:07:23;4.20;;;1.85;;
19059;SDS011;9663;48.996;8.334;2022-08-04T07:09:49;5.38;;;1.70;;
19059;SDS011;9663;48.996;8.334;2022-08-04T07:12:16;4.70;;;1.88;;
19059;SDS011;9663;48.996;8.334;2022-08-04T07:14:45;3.88;;;1.60;;
19059;SDS011;9663;48.996;8.334;2022-08-04T07:17:14;5.75;;;1.30;;
19059;SDS011;9663;48.996;8.334;2022-08-04T07:19:42;3.00;;;1.40;;
19059;SDS011;9663;48.996;8.334;2022-08-04T07:22:08;3.38;;;1.48;;
19059;SDS011;9663;48.996;8.334;2022-08-04T07:24:35;3.85;;;1.58;;
19059;SDS011;9663;48.996;8.334;2022-08-04T07:27:03;3.78;;;1.48;;
19059;SDS011;9663;48.996;8.334;2022-08-04T07:29:30;3.15;;;1.50;;
19059;SDS011;9663;48.996;8.334;2022-08-04T07:31:59;3.03;;;1.40;;
19059;SDS011;9663;48.996;8.334;2022-08-04T07:34:25;4.13;;;1.58;;
19059;SDS011;9663;48.996;8.334;2022-08-04T07:36:53;3.42;;;1.50;;
19059;SDS011;9663;48.996;8.334;2022-08-04T07:39:22;3.00;;;1.40;;
19059;SDS011;9663;48.996;8.334;2022-08-04T07:41:50;4.05;;;1.33;;
19059;SDS011;9663;48.996;8.334;2022-08-04T07:44:18;3.05;;;1.45;;
19059;SDS011;9663;48.996;8.334;2022-08-04T07:46:44;3.40;;;1.27;;
19059;SDS011;9663;48.996;8.334;2022-08-04T07:49:10;3.15;;;1.20;;
19059;SDS011;9663;48.996;8.334;2022-08-04T07:51:37;3.40;;;1.50;;
19059;SDS011;9663;48.996;8.334;2022-08-04T07:54:04;3.35;;;1.40;;
19059;SDS011;9663;48.996;8.334;2022-08-04T07:56:37;2.95;;;1.20;;
19059;SDS011;9663;48.996;8.334;2022-08-04T07:59:05;2.97;;;1.10;;
19059;SDS011;9663;48.996;8.334;2022-08-04T08:01:32;3.30;;;1.60;;
19059;SDS011;9663;48.996;8.334;2022-08-04T08:04:01;3.58;;;1.73;;
19059;SDS011;9663;48.996;8.334;2022-08-04T08:06:30;3.20;;;1.45;;
19059;SDS011;9663;48.996;8.334;2022-08-04T08:08:56;4.63;;;1.65;;
19059;SDS011;9663;48.996;8.334;2022-08-04T08:11:25;3.15;;;1.30;;
19059;SDS011;9663;48.996;8.334;2022-08-04T08:13:51;4.45;;;1.80;;
19059;SDS011;9663;48.996;8.334;2022-08-04T08:16:17;3.50;;;1.48;;
19059;SDS011;9663;48.996;8.334;2022-08-04T08:18:45;3.58;;;1.50;;
19059;SDS011;9663;48.996;8.334;2022-08-04T08:21:11;3.13;;;1.48;;
19059;SDS011;9663;48.996;8.334;2022-08-04T08:23:37;3.28;;;1.55;;
19059;SDS011;9663;48.996;8.334;2022-08-04T08:26:04;3.15;;;1.50;;
19059;SDS011;9663;48.996;8.334;2022-08-04T08:28:31;3.95;;;1.52;;
19059;SDS011;9663;48.996;8.334;2022-08-04T08:30:56;3.40;;;1.50;;
19059;SDS011;9663;48.996;8.334;2022-08-04T08:33:22;3.80;;;1.55;;
19059;SDS011;9663;48.996;8.334;2022-08-04T08:38:48;3.92;;;1.80;;
19059;SDS011;9663;48.996;8.334;2022-08-04T08:56:32;2.72;;;1.20;;
19059;SDS011;9663;48.996;8.334;2022-08-04T09:07:55;5.40;;;1.45;;
19059;SDS011;9663;48.996;8.334;2022-08-04T09:11:14;3.70;;;1.60;;
19059;SDS011;9663;48.996;8.334;2022-08-04T09:13:57;3.15;;;1.40;;
19059;SDS011;9663;48.996;8.334;2022-08-04T09:16:37;4.18;;;1.52;;
19059;SDS011;9663;48.996;8.334;2022-08-04T09:19:16;3.97;;;1.73;;
19059;SDS011;9663;48.996;8.334;2022-08-04T09:22:08;4.80;;;1.58;;
19059;SDS011;9663;48.996;8.334;2022-08-04T09:27:45;3.00;;;1.20;;
19059;SDS011;9663;48.996;8.334;2022-08-04T09:30:36;2.88;;;1.23;;
19059;SDS011;9663;48.996;8.334;2022-08-04T09:36:02;2.90;;;1.33;;
19059;SDS011;9663;48.996;8.334;2022-08-04T09:38:50;3.13;;;1.42;;
19059;SDS011;9663;48.996;8.334;2022-08-04T09:42:22;3.08;;;1.30;;
19059;SDS011;9663;48.996;8.334;2022-08-04T09:45:13;3.22;;;1.42;;
19059;SDS011;9663;48.996;8.334;2022-08-04T09:48:34;3.25;;;1.20;;
19059;SDS011;9663;48.996;8.334;2022-08-04T09:50:59;3.25;;;1.20;;
19059;SDS011;9663;48.996;8.334;2022-08-04T09:53:54;2.95;;;1.30;;
19059;SDS011;9663;48.996;8.334;2022-08-04T09:56:41;3.50;;;1.35;;
19059;SDS011;9663;48.996;8.334;2022-08-04T10:02:54;2.30;;;1.15;;
19059;SDS011;9663;48.996;8.334;2022-08-04T10:05:25;4.10;;;1.23;;
19059;SDS011;9663;48.996;8.334;2022-08-04T10:11:23;3.28;;;1.30;;
19059;SDS011;9663;48.996;8.334;2022-08-04T10:20:41;2.72;;;1.13;;
19059;SDS011;9663;48.996;8.334;2022-08-04T10:26:51;2.92;;;1.15;;
19059;SDS011;9663;48.996;8.334;2022-08-04T10:32:22;2.38;;;1.00;;
19059;SDS011;9663;48.996;8.334;2022-08-04T10:40:46;2.70;;;1.05;;
19059;SDS011;9663;48.996;8.334;2022-08-04T10:46:54;2.78;;;1.10;;
19059;SDS011;9663;48.996;8.334;2022-08-04T10:49:34;2.92;;;0.95;;
19059;SDS011;9663;48.996;8.334;2022-08-04T10:57:40;3.67;;;1.20;;
19059;SDS011;9663;48.996;8.334;2022-08-04T11:00:23;2.95;;;1.27;;
19059;SDS011;9663;48.996;8.334;2022-08-04T11:08:11;3.75;;;1.10;;
19059;SDS011;9663;48.996;8.334;2022-08-04T11:10:46;2.55;;;1.30;;
19059;SDS011;9663;48.996;8.334;2022-08-04T11:13:57;2.50;;;1.08;;
19059;SDS011;9663;48.996;8.334;2022-08-04T11:16:24;2.03;;;0.82;;
19059;SDS011;9663;48.996;8.334;2022-08-04T11:22:30;1.75;;;0.82;;
19059;SDS011;9663;48.996;8.334;2022-08-04T11:36:19;4.00;;;1.13;;
19059;SDS011;9663;48.996;8.334;2022-08-04T11:41:55;2.45;;;1.10;;
19059;SDS011;9663;48.996;8.334;2022-08-04T11:44:58;2.65;;;1.13;;
19059;SDS011;9663;48.996;8.334;2022-08-04T11:50:37;2.30;;;1.02;;
19059;SDS011;9663;48.996;8.334;2022-08-04T11:53:09;3.78;;;1.30;;
19059;SDS011;9663;48.996;8.334;2022-08-04T11:55:43;2.58;;;1.05;;
19059;SDS011;9663;48.996;8.334;2022-08-04T11:58:14;2.47;;;1.02;;
19059;SDS011;9663;48.996;8.334;2022-08-04T12:00:41;2.72;;;1.20;;
19059;SDS011;9663;48.996;8.334;2022-08-04T12:03:26;1.55;;;0.73;;
19059;SDS011;9663;48.996;8.334;2022-08-04T12:06:24;2.10;;;0.90;;
19059;SDS011;9663;48.996;8.334;2022-08-04T12:17:37;2.03;;;1.00;;
19059;SDS011;9663;48.996;8.334;2022-08-04T12:20:31;2.15;;;1.00;;
19059;SDS011;9663;48.996;8.334;2022-08-04T12:23:14;1.88;;;0.90;;
19059;SDS011;9663;48.996;8.334;2022-08-04T12:25:47;3.78;;;1.10;;
19059;SDS011;9663;48.996;8.334;2022-08-04T12:28:28;2.60;;;1.00;;
19059;SDS011;9663;48.996;8.334;2022-08-04T12:33:47;1.70;;;0.90;;
19059;SDS011;9663;48.996;8.334;2022-08-04T12:36:39;2.20;;;1.10;;
19059;SDS011;9663;48.996;8.334;2022-08-04T12:39:19;1.83;;;1.00;;
19059;SDS011;9663;48.996;8.334;2022-08-04T12:41:56;1.63;;;0.90;;
19059;SDS011;9663;48.996;8.334;2022-08-04T12:44:35;2.15;;;0.90;;
19059;SDS011;9663;48.996;8.334;2022-08-04T12:47:06;3.38;;;1.10;;
19059;SDS011;9663;48.996;8.334;2022-08-04T12:49:36;1.83;;;0.90;;
19059;SDS011;9663;48.996;8.334;2022-08-04T12:52:07;1.70;;;0.98;;
19059;SDS011;9663;48.996;8.334;2022-08-04T12:54:36;3.55;;;1.00;;
19059;SDS011;9663;48.996;8.334;2022-08-04T12:57:05;1.95;;;1.00;;
19059;SDS011;9663;48.996;8.334;2022-08-04T13:00:06;2.33;;;1.23;;
19059;SDS011;9663;48.996;8.334;2022-08-04T13:02:26;3.13;;;1.48;;
19059;SDS011;9663;48.996;8.334;2022-08-04T13:04:57;2.17;;;1.08;;
19059;SDS011;9663;48.996;8.334;2022-08-04T13:07:33;3.50;;;1.10;;
19059;SDS011;9663;48.996;8.334;2022-08-04T13:10:21;1.60;;;0.82;;
19059;SDS011;9663;48.996;8.334;2022-08-04T13:12:50;2.28;;;1.00;;
19059;SDS011;9663;48.996;8.334;2022-08-04T13:15:21;2.58;;;1.10;;
19059;SDS011;9663;48.996;8.334;2022-08-04T13:17:52;1.90;;;1.00;;
19059;SDS011;9663;48.996;8.334;2022-08-04T13:20:28;2.20;;;1.10;;
19059;SDS011;9663;48.996;8.334;2022-08-04T13:23:12;1.92;;;1.00;;
19059;SDS011;9663;48.996;8.334;2022-08-04T13:25:43;1.40;;;0.80;;
19059;SDS011;9663;48.996;8.334;2022-08-04T13:28:14;2.03;;;1.05;;
19059;SDS011;9663;48.996;8.334;2022-08-04T13:30:47;2.22;;;1.00;;
19059;SDS011;9663;48.996;8.334;2022-08-04T13:33:32;1.35;;;0.80;;
19059;SDS011;9663;48.996;8.334;2022-08-04T13:36:01;1.42;;;0.90;;
19059;SDS011;9663;48.996;8.334;2022-08-04T13:38:31;1.52;;;0.90;;
19059;SDS011;9663;48.996;8.334;2022-08-04T13:41:01;2.58;;;1.00;;
19059;SDS011;9663;48.996;8.334;2022-08-04T13:43:40;1.58;;;0.95;;
19059;SDS011;9663;48.996;8.334;2022-08-04T13:49:16;1.95;;;1.10;;
19059;SDS011;9663;48.996;8.334;2022-08-04T13:51:59;2.15;;;1.02;;
19059;SDS011;9663;48.996;8.334;2022-08-04T13:54:49;1.88;;;0.95;;
19059;SDS011;9663;48.996;8.334;2022-08-04T13:57:21;2.00;;;1.00;;
19059;SDS011;9663;48.996;8.334;2022-08-04T13:59:56;1.73;;;0.90;;
19059;SDS011;9663;48.996;8.334;2022-08-04T14:02:41;1.70;;;1.00;;
19059;SDS011;9663;48.996;8.334;2022-08-04T14:07:48;2.10;;;0.80;;
19059;SDS011;9663;48.996;8.334;2022-08-04T14:10:19;1.35;;;0.90;;
19059;SDS011;9663;48.996;8.334;2022-08-04T14:12:48;1.73;;;0.90;;
19059;SDS011;9663;48.996;8.334;2022-08-04T14:15:33;1.70;;;0.80;;
19059;SDS011;9663;48.996;8.334;2022-08-04T14:18:15;1.75;;;0.82;;
19059;SDS011;9663;48.996;8.334;2022-08-04T14:23:38;1.70;;;0.93;;
19059;SDS011;9663;48.996;8.334;2022-08-04T14:28:46;1.45;;;0.80;;
19059;SDS011;9663;48.996;8.334;2022-08-04T14:31:14;1.25;;;0.75;;
19059;SDS011;9663;48.996;8.334;2022-08-04T14:33:47;1.58;;;0.80;;
19059;SDS011;9663;48.996;8.334;2022-08-04T14:36:15;1.38;;;0.80;;
19059;SDS011;9663;48.996;8.334;2022-08-04T14:38:52;1.50;;;0.90;;
19059;SDS011;9663;48.996;8.334;2022-08-04T14:41:25;1.52;;;0.90;;
19059;SDS011;9663;48.996;8.334;2022-08-04T14:43:58;1.58;;;0.95;;
19059;SDS011;9663;48.996;8.334;2022-08-04T14:46:25;1.77;;;1.00;;
19059;SDS011;9663;48.996;8.334;2022-08-04T14:54:32;1.50;;;0.95;;
19059;SDS011;9663;48.996;8.334;2022-08-04T14:57:01;2.20;;;1.08;;
19059;SDS011;9663;48.996;8.334;2022-08-04T14:59:48;1.73;;;1.00;;
19059;SDS011;9663;48.996;8.334;2022-08-04T15:02:14;2.13;;;1.23;;
19059;SDS011;9663;48.996;8.334;2022-08-04T15:04:41;2.13;;;1.20;;
19059;SDS011;9663;48.996;8.334;2022-08-04T15:07:09;2.20;;;1.30;;
19059;SDS011;9663;48.996;8.334;2022-08-04T15:09:36;2.25;;;1.30;;
19059;SDS011;9663;48.996;8.334;2022-08-04T15:12:02;2.38;;;1.38;;
19059;SDS011;9663;48.996;8.334;2022-08-04T15:14:29;2.47;;;1.50;;
19059;SDS011;9663;48.996;8.334;2022-08-04T15:16:57;2.45;;;1.50;;
19059;SDS011;9663;48.996;8.334;2022-08-04T15:19:23;2.30;;;1.40;;
19059;SDS011;9663;48.996;8.334;2022-08-04T15:21:50;2.35;;;1.40;;
19059;SDS011;9663;48.996;8.334;2022-08-04T15:24:16;2.58;;;1.50;;
19059;SDS011;9663;48.996;8.334;2022-08-04T15:26:49;3.03;;;1.50;;
19059;SDS011;9663;48.996;8.334;2022-08-04T15:29:26;2.28;;;1.40;;
19059;SDS011;9663;48.996;8.334;2022-08-04T15:32:01;2.58;;;1.58;;
19059;SDS011;9663;48.996;8.334;2022-08-04T15:34:43;2.60;;;1.65;;
19059;SDS011;9663;48.996;8.334;2022-08-04T15:37:09;2.25;;;1.58;;
19059;SDS011;9663;48.996;8.334;2022-08-04T15:39:52;2.60;;;1.52;;
19059;SDS011;9663;48.996;8.334;2022-08-04T15:42:47;2.58;;;1.65;;
19059;SDS011;9663;48.996;8.334;2022-08-04T15:45:31;2.38;;;1.48;;
19059;SDS011;9663;48.996;8.334;2022-08-04T15:48:24;2.30;;;1.45;;
19059;SDS011;9663;48.996;8.334;2022-08-04T15:51:01;2.78;;;1.80;;
19059;SDS011;9663;48.996;8.334;2022-08-04T15:58:54;2.65;;;1.48;;
19059;SDS011;9663;48.996;8.334;2022-08-04T16:01:21;2.47;;;1.48;;
19059;SDS011;9663;48.996;8.334;2022-08-04T16:03:50;2.35;;;1.55;;
19059;SDS011;9663;48.996;8.334;2022-08-04T16:22:31;2.42;;;1.50;;
19059;SDS011;9663;48.996;8.334;2022-08-04T16:25:06;2.60;;;1.55;;
19059;SDS011;9663;48.996;8.334;2022-08-04T16:27:40;2.40;;;1.40;;
19059;SDS011;9663;48.996;8.334;2022-08-04T16:30:09;2.20;;;1.30;;
19059;SDS011;9663;48.996;8.334;2022-08-04T16:32:47;2.63;;;1.60;;
19059;SDS011;9663;48.996;8.334;2022-08-04T16:37:51;2.50;;;1.40;;
19059;SDS011;9663;48.996;8.334;2022-08-04T16:40:34;3.60;;;1.50;;
19059;SDS011;9663;48.996;8.334;2022-08-04T16:43:06;2.10;;;1.30;;
19059;SDS011;9663;48.996;8.334;2022-08-04T16:48:23;2.58;;;1.50;;
19059;SDS011;9663;48.996;8.334;2022-08-04T16:50:52;2.33;;;1.50;;
19059;SDS011;9663;48.996;8.334;2022-08-04T16:53:21;3.00;;;1.58;;
19059;SDS011;9663;48.996;8.334;2022-08-04T16:55:52;2.28;;;1.50;;
19059;SDS011;9663;48.996;8.334;2022-08-04T16:58:23;4.80;;;1.65;;
19059;SDS011;9663;48.996;8.334;2022-08-04T17:01:32;2.35;;;1.30;;
19059;SDS011;9663;48.996;8.334;2022-08-04T17:03:54;2.22;;;1.30;;
19059;SDS011;9663;48.996;8.334;2022-08-04T17:06:20;2.00;;;1.20;;
19059;SDS011;9663;48.996;8.334;2022-08-04T17:08:47;1.90;;;1.10;;
19059;SDS011;9663;48.996;8.334;2022-08-04T17:11:14;2.45;;;1.30;;
19059;SDS011;9663;48.996;8.334;2022-08-04T17:13:44;2.60;;;1.40;;
19059;SDS011;9663;48.996;8.334;2022-08-04T17:16:12;2.50;;;1.30;;
19059;SDS011;9663;48.996;8.334;2022-08-04T17:18:44;3.10;;;1.33;;
19059;SDS011;9663;48.996;8.334;2022-08-04T17:21:14;2.33;;;1.15;;
19059;SDS011;9663;48.996;8.334;2022-08-04T17:23:48;2.08;;;1.15;;
19059;SDS011;9663;48.996;8.334;2022-08-04T17:26:21;2.20;;;1.30;;
19059;SDS011;9663;48.996;8.334;2022-08-04T17:28:50;2.45;;;1.17;;
19059;SDS011;9663;48.996;8.334;2022-08-04T17:31:21;2.28;;;1.17;;
19059;SDS011;9663;48.996;8.334;2022-08-04T17:33:50;2.10;;;1.10;;
19059;SDS011;9663;48.996;8.334;2022-08-04T17:36:29;2.60;;;1.23;;
19059;SDS011;9663;48.996;8.334;2022-08-04T17:38:59;2.40;;;1.30;;
19059;SDS011;9663;48.996;8.334;2022-08-04T17:41:34;1.85;;;0.88;;
19059;SDS011;9663;48.996;8.334;2022-08-04T17:44:00;2.40;;;1.00;;
19059;SDS011;9663;48.996;8.334;2022-08-04T17:46:43;3.42;;;1.05;;
19059;SDS011;9663;48.996;8.334;2022-08-04T17:49:18;1.60;;;0.90;;
19059;SDS011;9663;48.996;8.334;2022-08-04T17:51:50;1.65;;;0.80;;
19059;SDS011;9663;48.996;8.334;2022-08-04T17:56:56;1.77;;;0.80;;
19059;SDS011;9663;48.996;8.334;2022-08-04T17:59:25;1.38;;;0.65;;
19059;SDS011;9663;48.996;8.334;2022-08-04T18:01:59;3.08;;;1.23;;
19059;SDS011;9663;48.996;8.334;2022-08-04T18:04:27;2.05;;;0.82;;
19059;SDS011;9663;48.996;8.334;2022-08-04T18:07:13;2.58;;;1.00;;
19059;SDS011;9663;48.996;8.334;2022-08-04T18:09:52;2.10;;;0.90;;
19059;SDS011;9663;48.996;8.334;2022-08-04T18:12:32;2.47;;;0.90;;
19059;SDS011;9663;48.996;8.334;2022-08-04T18:15:02;2.50;;;1.00;;
19059;SDS011;9663;48.996;8.334;2022-08-04T18:17:44;2.72;;;0.90;;
19059;SDS011;9663;48.996;8.334;2022-08-04T18:20:18;2.30;;;0.95;;
19059;SDS011;9663;48.996;8.334;2022-08-04T18:22:49;2.45;;;1.02;;
19059;SDS011;9663;48.996;8.334;2022-08-04T18:25:15;3.40;;;1.00;;
19059;SDS011;9663;48.996;8.334;2022-08-04T18:27:46;2.70;;;1.08;;
19059;SDS011;9663;48.996;8.334;2022-08-04T18:30:20;1.77;;;0.80;;
19059;SDS011;9663;48.996;8.334;2022-08-04T18:32:48;2.45;;;0.90;;
19059;SDS011;9663;48.996;8.334;2022-08-04T18:35:15;2.00;;;0.85;;
19059;SDS011;9663;48.996;8.334;2022-08-04T18:37:41;2.13;;;0.80;;
19059;SDS011;9663;48.996;8.334;2022-08-04T18:40:07;2.33;;;0.80;;
19059;SDS011;9663;48.996;8.334;2022-08-04T18:42:34;1.98;;;0.80;;
19059;SDS011;9663;48.996;8.334;2022-08-04T18:45:01;2.10;;;0.82;;
19059;SDS011;9663;48.996;8.334;2022-08-04T18:47:28;2.60;;;1.00;;
19059;SDS011;9663;48.996;8.334;2022-08-04T18:49:54;2.60;;;0.93;;
19059;SDS011;9663;48.996;8.334;2022-08-04T18:52:21;2.80;;;0.98;;
19059;SDS011;9663;48.996;8.334;2022-08-04T18:54:47;2.42;;;1.00;;
19059;SDS011;9663;48.996;8.334;2022-08-04T18:57:20;3.25;;;1.30;;
19059;SDS011;9663;48.996;8.334;2022-08-04T18:59:47;3.13;;;1.20;;
19059;SDS011;9663;48.996;8.334;2022-08-04T19:02:14;2.90;;;1.10;;
19059;SDS011;9663;48.996;8.334;2022-08-04T19:04:40;2.95;;;1.05;;
19059;SDS011;9663;48.996;8.334;2022-08-04T19:07:07;2.58;;;0.95;;
19059;SDS011;9663;48.996;8.334;2022-08-04T19:09:33;3.22;;;1.10;;
19059;SDS011;9663;48.996;8.334;2022-08-04T19:11:59;2.38;;;0.90;;
19059;SDS011;9663;48.996;8.334;2022-08-04T19:14:25;2.78;;;0.93;;
19059;SDS011;9663;48.996;8.334;2022-08-04T19:16:50;2.83;;;1.00;;
19059;SDS011;9663;48.996;8.334;2022-08-04T19:19:17;3.22;;;1.10;;
19059;SDS011;9663;48.996;8.334;2022-08-04T19:21:43;2.83;;;0.95;;
19059;SDS011;9663;48.996;8.334;2022-08-04T19:24:09;2.03;;;0.80;;
19059;SDS011;9663;48.996;8.334;2022-08-04T19:26:36;2.40;;;0.93;;
19059;SDS011;9663;48.996;8.334;2022-08-04T19:29:03;2.38;;;0.82;;
19059;SDS011;9663;48.996;8.334;2022-08-04T19:31:29;2.58;;;1.08;;
19059;SDS011;9663;48.996;8.334;2022-08-04T19:33:55;3.22;;;1.30;;
19059;SDS011;9663;48.996;8.334;2022-08-04T19:36:21;3.03;;;1.00;;
19059;SDS011;9663;48.996;8.334;2022-08-04T19:38:49;2.72;;;0.90;;
19059;SDS011;9663;48.996;8.334;2022-08-04T19:41:14;3.05;;;1.23;;
19059;SDS011;9663;48.996;8.334;2022-08-04T19:43:41;4.18;;;1.40;;
19059;SDS011;9663;48.996;8.334;2022-08-04T19:46:07;3.78;;;1.42;;
19059;SDS011;9663;48.996;8.334;2022-08-04T19:48:33;3.63;;;1.40;;
19059;SDS011;9663;48.996;8.334;2022-08-04T19:50:59;3.25;;;1.20;;
19059;SDS011;9663;48.996;8.334;2022-08-04T19:53:25;3.33;;;1.05;;
19059;SDS011;9663;48.996;8.334;2022-08-04T19:55:51;3.20;;;1.00;;
19059;SDS011;9663;48.996;8.334;2022-08-04T19:58:17;3.45;;;1.20;;
19059;SDS011;9663;48.996;8.334;2022-08-04T20:00:46;3.70;;;1.20;;
19059;SDS011;9663;48.996;8.334;2022-08-04T20:03:12;2.67;;;1.05;;
19059;SDS011;9663;48.996;8.334;2022-08-04T20:05:39;2.63;;;1.00;;
19059;SDS011;9663;48.996;8.334;2022-08-04T20:08:09;3.42;;;1.17;;
19059;SDS011;9663;48.996;8.334;2022-08-04T20:10:35;4.18;;;1.35;;
19059;SDS011;9663;48.996;8.334;2022-08-04T20:13:02;4.80;;;1.00;;
19059;SDS011;9663;48.996;8.334;2022-08-04T20:15:29;2.20;;;0.93;;
19059;SDS011;9663;48.996;8.334;2022-08-04T20:17:55;3.20;;;1.10;;
19059;SDS011;9663;48.996;8.334;2022-08-04T20:20:21;2.58;;;1.02;;
19059;SDS011;9663;48.996;8.334;2022-08-04T20:22:47;3.03;;;1.10;;
19059;SDS011;9663;48.996;8.334;2022-08-04T20:25:13;3.25;;;0.95;;
19059;SDS011;9663;48.996;8.334;2022-08-04T20:27:38;2.03;;;0.90;;
19059;SDS011;9663;48.996;8.334;2022-08-04T20:30:05;2.70;;;1.00;;
19059;SDS011;9663;48.996;8.334;2022-08-04T20:32:31;3.28;;;1.13;;
19059;SDS011;9663;48.996;8.334;2022-08-04T20:34:57;2.80;;;0.90;;
19059;SDS011;9663;48.996;8.334;2022-08-04T20:37:24;2.83;;;1.10;;
19059;SDS011;9663;48.996;8.334;2022-08-04T20:39:52;2.60;;;1.00;;
19059;SDS011;9663;48.996;8.334;2022-08-04T20:42:23;3.00;;;1.17;;
19059;SDS011;9663;48.996;8.334;2022-08-04T20:44:49;2.28;;;0.98;;